createdAt,value
2023-03-26T00:00:44.221Z,6.22
2023-03-26T00:03:12.690Z,6.38
2023-03-26T00:05:41.016Z,6.05
2023-03-26T00:08:11.289Z,7.03
2023-03-26T00:10:39.971Z,6.57
2023-03-26T00:13:07.306Z,6.78
2023-03-26T00:15:35.442Z,7.32
2023-03-26T00:18:02.903Z,7.10
2023-03-26T00:20:32.719Z,7.30
2023-03-26T00:23:03.498Z,6.90
2023-03-26T00:25:32.059Z,7.03
2023-03-26T00:27:59.360Z,7.47
2023-03-26T00:30:27.657Z,6.63
2023-03-26T00:32:54.930Z,7.63
2023-03-26T00:35:22.447Z,8.30
2023-03-26T00:37:51.518Z,7.82
2023-03-26T00:40:19.131Z,7.50
2023-03-26T00:42:46.404Z,7.18
2023-03-26T00:45:13.808Z,7.25
2023-03-26T00:47:43.542Z,7.28
2023-03-26T00:50:15.544Z,8.05
2023-03-26T00:52:44.072Z,7.22
2023-03-26T00:55:11.356Z,7.97
2023-03-26T00:57:40.268Z,7.70
2023-03-26T01:00:14.332Z,8.13
2023-03-26T01:02:41.585Z,8.07
2023-03-26T01:05:28.870Z,8.90
2023-03-26T01:07:56.134Z,8.77
2023-03-26T01:10:23.353Z,8.38
2023-03-26T01:12:51.172Z,10.50
2023-03-26T01:15:18.484Z,8.80
2023-03-26T01:17:46.085Z,8.85
2023-03-26T01:20:14.998Z,8.55
2023-03-26T01:22:45.243Z,9.23
2023-03-26T01:25:12.621Z,9.07
2023-03-26T01:27:54.442Z,9.05
2023-03-26T01:30:24.844Z,9.40
2023-03-26T01:33:13.853Z,11.38
2023-03-26T01:35:53.722Z,10.73
2023-03-26T01:38:23.026Z,10.32
2023-03-26T01:41:01.718Z,13.65
2023-03-26T01:43:47.272Z,11.68
2023-03-26T01:46:15.537Z,11.13
2023-03-26T01:48:43.941Z,11.43
2023-03-26T01:51:12.384Z,12.97
2023-03-26T01:53:47.679Z,14.97
2023-03-26T01:56:18.015Z,12.77
2023-03-26T01:58:52.321Z,14.52
2023-03-26T02:01:31.556Z,13.20
2023-03-26T02:06:46.722Z,12.43
2023-03-26T02:09:17.442Z,13.27
2023-03-26T02:11:45.970Z,13.63
2023-03-26T02:14:13.961Z,13.02
2023-03-26T02:16:41.325Z,15.20
2023-03-26T02:19:15.446Z,14.43
2023-03-26T02:21:43.159Z,14.27
2023-03-26T02:24:10.756Z,16.08
2023-03-26T02:26:38.857Z,14.88
2023-03-26T02:29:10.006Z,14.23
2023-03-26T02:31:39.427Z,14.25
2023-03-26T02:34:06.830Z,13.75
2023-03-26T02:36:37.435Z,15.27
2023-03-26T02:39:05.715Z,13.50
2023-03-26T02:41:36.702Z,12.88
2023-03-26T02:44:08.381Z,13.82
2023-03-26T02:46:58.480Z,12.75
2023-03-26T02:49:44.403Z,14.30
2023-03-26T02:52:18.620Z,16.10
2023-03-26T02:54:48.454Z,14.88
2023-03-26T02:57:24.121Z,15.27
2023-03-26T02:59:52.798Z,15.50
2023-03-26T03:02:48.288Z,17.05
2023-03-26T03:05:31.858Z,15.88
2023-03-26T03:08:18.331Z,14.48
2023-03-26T03:11:10.586Z,14.83
2023-03-26T03:13:46.520Z,13.85
2023-03-26T03:16:18.345Z,14.30
2023-03-26T03:18:47.536Z,14.18
2023-03-26T03:23:42.420Z,12.15
2023-03-26T03:26:15.566Z,14.43
2023-03-26T03:28:46.259Z,13.40
2023-03-26T03:31:16.582Z,15.20
2023-03-26T03:33:46.182Z,13.30
2023-03-26T03:36:20.595Z,13.82
2023-03-26T03:38:56.037Z,13.68
2023-03-26T03:41:24.381Z,10.80
2023-03-26T03:43:51.932Z,13.52
2023-03-26T03:46:26.069Z,13.27
2023-03-26T03:48:53.525Z,14.52
2023-03-26T03:51:25.900Z,11.77
2023-03-26T03:54:01.925Z,12.38
2023-03-26T03:56:51.835Z,12.85
2023-03-26T03:59:37.153Z,9.25
2023-03-26T04:02:07.269Z,15.95
2023-03-26T04:04:42.063Z,13.00
2023-03-26T04:07:12.298Z,12.55
2023-03-26T04:10:00.000Z,12.10
2023-03-26T04:12:32.006Z,11.68
2023-03-26T04:15:03.723Z,13.15
2023-03-26T04:17:31.930Z,10.67
2023-03-26T04:20:10.347Z,11.65
2023-03-26T04:22:37.717Z,14.80
2023-03-26T04:25:08.456Z,14.35
2023-03-26T04:27:44.610Z,17.00
2023-03-26T04:30:23.269Z,14.15
2023-03-26T04:32:58.592Z,12.88
2023-03-26T04:35:30.343Z,14.15
2023-03-26T04:37:58.267Z,13.85
2023-03-26T04:40:30.688Z,13.82
2023-03-26T04:43:18.152Z,10.70
2023-03-26T04:46:03.258Z,12.80
2023-03-26T04:48:33.275Z,11.07
2023-03-26T04:51:01.383Z,11.30
2023-03-26T04:53:28.767Z,12.30
2023-03-26T04:56:43.369Z,14.20
2023-03-26T04:59:19.881Z,12.30
2023-03-26T05:01:47.099Z,10.20
2023-03-26T05:04:16.591Z,10.95
2023-03-26T05:06:43.915Z,12.10
2023-03-26T05:09:21.386Z,10.02
2023-03-26T05:12:08.882Z,14.10
2023-03-26T05:14:47.894Z,11.68
2023-03-26T05:17:21.454Z,10.63
2023-03-26T05:19:49.337Z,11.90
2023-03-26T05:22:18.387Z,10.93
2023-03-26T05:25:08.573Z,14.43
2023-03-26T05:27:35.974Z,12.18
2023-03-26T05:30:03.865Z,11.00
2023-03-26T05:32:38.230Z,12.20
2023-03-26T05:35:05.920Z,11.52
2023-03-26T05:37:33.249Z,15.10
2023-03-26T05:40:06.764Z,11.77
2023-03-26T05:42:54.642Z,11.40
2023-03-26T05:45:42.145Z,13.82
2023-03-26T05:48:18.735Z,12.57
2023-03-26T05:50:48.197Z,13.77
2023-03-26T05:53:15.709Z,15.00
2023-03-26T05:56:02.865Z,12.80
2023-03-26T05:58:50.041Z,14.55
2023-03-26T06:01:54.544Z,13.90
2023-03-26T06:04:24.532Z,11.48
2023-03-26T06:07:12.106Z,13.30
2023-03-26T06:09:43.681Z,12.23
2023-03-26T06:12:11.569Z,12.10
2023-03-26T06:14:42.777Z,13.15
2023-03-26T06:17:18.076Z,12.20
2023-03-26T06:20:09.575Z,13.98
2023-03-26T06:22:42.892Z,11.00
2023-03-26T06:25:34.105Z,12.60
2023-03-26T06:28:20.642Z,12.38
2023-03-26T06:31:03.084Z,14.57
2023-03-26T06:33:54.315Z,14.95
2023-03-26T06:36:21.687Z,13.10
2023-03-26T06:38:50.772Z,14.75
2023-03-26T06:41:18.073Z,16.08
2023-03-26T06:44:14.368Z,17.13
2023-03-26T06:47:07.746Z,15.27
2023-03-26T06:49:53.429Z,13.98
2023-03-26T06:52:35.976Z,16.80
2023-03-26T06:55:25.436Z,14.98
2023-03-26T06:58:08.779Z,16.70
2023-03-26T07:00:58.931Z,16.20
2023-03-26T07:03:44.797Z,15.85
2023-03-26T07:06:30.535Z,14.60
2023-03-26T07:09:16.271Z,15.77
2023-03-26T07:12:15.781Z,17.55
2023-03-26T07:15:17.835Z,17.63
2023-03-26T07:18:03.664Z,19.80
2023-03-26T07:20:33.844Z,19.75
2023-03-26T07:23:01.659Z,20.80
2023-03-26T07:25:48.661Z,20.55
2023-03-26T07:28:34.775Z,21.92
2023-03-26T07:31:27.171Z,21.85
2023-03-26T07:34:50.214Z,25.38
2023-03-26T07:37:56.456Z,21.50
2023-03-26T07:40:52.017Z,25.83
2023-03-26T07:43:40.336Z,22.90
2023-03-26T07:46:41.479Z,25.73
2023-03-26T07:49:32.596Z,24.50
2023-03-26T07:52:10.898Z,22.23
2023-03-26T07:54:57.398Z,30.20
2023-03-26T07:57:45.557Z,24.35
2023-03-26T08:00:35.840Z,23.70
2023-03-26T08:03:19.784Z,22.67
2023-03-26T08:06:16.440Z,19.55
2023-03-26T08:09:14.117Z,16.27
2023-03-26T08:12:25.279Z,17.73
2023-03-26T08:15:08.096Z,16.77
2023-03-26T08:17:35.433Z,16.40
2023-03-26T08:20:09.219Z,14.63
2023-03-26T08:22:41.701Z,16.20
2023-03-26T08:25:21.289Z,15.55
2023-03-26T08:27:55.946Z,15.32
2023-03-26T08:30:24.750Z,17.45
2023-03-26T08:32:59.066Z,15.80
2023-03-26T08:35:27.282Z,15.23
2023-03-26T08:37:54.818Z,15.18
2023-03-26T08:40:28.639Z,15.52
2023-03-26T08:43:06.997Z,17.60
2023-03-26T08:45:42.948Z,17.48
2023-03-26T08:48:22.559Z,15.70
2023-03-26T08:51:10.601Z,14.98
2023-03-26T08:53:58.204Z,13.40
2023-03-26T08:56:44.563Z,14.32
2023-03-26T08:59:27.259Z,12.77
2023-03-26T09:02:13.201Z,12.55
2023-03-26T09:04:58.759Z,10.90
2023-03-26T09:07:28.861Z,9.80
2023-03-26T09:10:17.292Z,9.18
2023-03-26T09:12:53.498Z,8.70
2023-03-26T09:15:21.069Z,8.57
2023-03-26T09:18:08.116Z,9.07
2023-03-26T09:20:41.412Z,8.13
2023-03-26T09:23:12.641Z,8.93
2023-03-26T09:25:49.956Z,9.18
2023-03-26T09:28:36.465Z,9.75
2023-03-26T09:31:12.881Z,9.05
2023-03-26T09:33:56.272Z,8.07
2023-03-26T09:36:27.096Z,8.75
2023-03-26T09:38:56.912Z,8.52
2023-03-26T09:41:35.101Z,9.38
2023-03-26T09:44:14.050Z,9.32
2023-03-26T09:46:46.459Z,7.07
2023-03-26T09:49:20.934Z,6.25
2023-03-26T09:51:51.318Z,5.80
2023-03-26T09:54:31.521Z,5.70
2023-03-26T09:57:07.895Z,4.80
2023-03-26T09:59:35.333Z,4.93
2023-03-26T10:02:09.248Z,4.55
2023-03-26T10:04:54.215Z,3.97
2023-03-26T10:07:36.407Z,3.65
2023-03-26T10:10:15.899Z,3.85
2023-03-26T10:13:02.021Z,5.43
2023-03-26T10:15:59.155Z,3.72
2023-03-26T10:18:28.742Z,6.03
2023-03-26T10:21:03.641Z,5.82
2023-03-26T10:23:57.656Z,5.10
2023-03-26T10:27:08.616Z,5.97
2023-03-26T10:29:51.822Z,11.43
2023-03-26T10:32:38.093Z,4.63
2023-03-26T10:35:10.308Z,4.97
2023-03-26T10:37:56.151Z,5.68
2023-03-26T10:40:36.147Z,3.75
2023-03-26T10:43:21.803Z,4.60
2023-03-26T10:45:56.414Z,4.82
2023-03-26T10:48:47.764Z,3.83
2023-03-26T10:51:33.896Z,3.97
2023-03-26T10:54:12.090Z,4.63
2023-03-26T10:56:46.404Z,5.85
2023-03-26T10:59:14.798Z,4.78
2023-03-26T11:01:45.426Z,3.67
2023-03-26T11:04:16.276Z,5.03
2023-03-26T11:06:46.575Z,4.18
2023-03-26T11:09:17.280Z,4.85
2023-03-26T11:12:00.112Z,4.75
2023-03-26T11:14:51.116Z,5.80
2023-03-26T11:17:40.087Z,4.15
2023-03-26T11:20:17.248Z,6.35
2023-03-26T11:22:47.615Z,5.75
2023-03-26T11:25:18.494Z,4.15
2023-03-26T11:27:52.241Z,4.13
2023-03-26T11:30:24.542Z,5.47
2023-03-26T11:33:18.038Z,5.65
2023-03-26T11:35:50.969Z,4.43
2023-03-26T11:38:18.497Z,4.72
2023-03-26T11:40:50.589Z,4.32
2023-03-26T11:43:30.612Z,3.60
2023-03-26T11:45:58.166Z,4.05
2023-03-26T11:48:37.972Z,3.95
2023-03-26T11:51:08.326Z,3.38
2023-03-26T11:53:39.234Z,5.32
2023-03-26T11:56:27.055Z,4.53
2023-03-26T11:59:11.976Z,5.53
2023-03-26T12:01:52.236Z,4.75
2023-03-26T12:04:30.705Z,5.60
2023-03-26T12:07:05.572Z,4.13
2023-03-26T12:09:32.797Z,4.45
2023-03-26T12:12:01.398Z,5.72
2023-03-26T12:14:30.218Z,4.78
2023-03-26T12:17:08.518Z,3.65
2023-03-26T12:19:40.101Z,2.83
2023-03-26T12:22:07.672Z,3.63
2023-03-26T12:24:36.404Z,3.42
2023-03-26T12:27:22.011Z,4.68
2023-03-26T12:29:55.064Z,5.00
2023-03-26T12:32:32.487Z,3.28
2023-03-26T12:35:07.869Z,2.65
2023-03-26T12:37:41.698Z,3.17
2023-03-26T12:40:27.287Z,2.95
2023-03-26T12:44:49.470Z,3.67
2023-03-26T12:46:58.937Z,2.83
2023-03-26T12:48:42.143Z,3.03
2023-03-26T12:51:09.629Z,2.40
2023-03-26T12:53:43.147Z,2.95
2023-03-26T12:56:11.205Z,2.28
2023-03-26T12:58:41.456Z,2.13
2023-03-26T13:01:23.896Z,2.75
2023-03-26T13:04:08.467Z,3.85
2023-03-26T13:06:59.130Z,2.47
2023-03-26T13:09:44.257Z,2.20
2023-03-26T13:12:17.381Z,4.22
2023-03-26T13:14:56.830Z,2.83
2023-03-26T13:17:24.179Z,2.40
2023-03-26T13:19:54.434Z,3.08
2023-03-26T13:22:40.680Z,3.72
2023-03-26T13:25:23.263Z,4.32
2023-03-26T13:28:04.489Z,3.10
2023-03-26T13:30:40.599Z,2.75
2023-03-26T13:33:15.436Z,3.72
2023-03-26T13:36:19.284Z,3.03
2023-03-26T13:39:03.488Z,2.30
2023-03-26T13:41:51.038Z,2.22
2023-03-26T13:44:23.928Z,2.10
2023-03-26T13:46:56.037Z,2.25
2023-03-26T13:49:30.002Z,2.65
2023-03-26T13:52:17.506Z,1.85
2023-03-26T13:54:56.184Z,3.13
2023-03-26T13:57:56.069Z,2.83
2023-03-26T14:00:32.513Z,2.28
2023-03-26T14:03:13.776Z,2.67
2023-03-26T14:05:44.455Z,3.65
2023-03-26T14:08:17.329Z,1.85
2023-03-26T14:10:48.164Z,3.55
2023-03-26T14:13:34.421Z,1.75
2023-03-26T14:16:12.603Z,3.90
2023-03-26T14:18:59.957Z,2.40
2023-03-26T14:21:30.288Z,1.85
2023-03-26T14:23:57.648Z,2.45
2023-03-26T14:26:32.537Z,2.38
2023-03-26T14:29:18.925Z,1.70
2023-03-26T14:31:58.487Z,1.85
2023-03-26T14:34:34.417Z,2.83
2023-03-26T14:37:07.671Z,1.98
2023-03-26T14:39:34.938Z,2.42
2023-03-26T14:42:03.399Z,3.15
2023-03-26T14:44:30.646Z,1.83
2023-03-26T14:47:17.560Z,3.67
2023-03-26T14:49:51.914Z,1.60
2023-03-26T14:52:29.000Z,1.90
2023-03-26T14:54:58.318Z,2.15
2023-03-26T14:59:59.322Z,1.95
2023-03-26T15:02:54.523Z,3.13
2023-03-26T15:05:40.862Z,2.22
2023-03-26T15:08:11.351Z,2.80
2023-03-26T15:10:38.587Z,1.77
2023-03-26T15:13:10.031Z,1.83
2023-03-26T15:15:56.162Z,2.10
2023-03-26T15:18:42.340Z,1.88
2023-03-26T15:21:13.141Z,2.08
2023-03-26T15:23:54.035Z,2.42
2023-03-26T15:26:41.678Z,3.05
2023-03-26T15:29:27.564Z,1.65
2023-03-26T15:32:01.117Z,2.33
2023-03-26T15:34:48.743Z,1.98
2023-03-26T15:37:17.161Z,3.53
2023-03-26T15:39:59.311Z,2.58
2023-03-26T15:42:32.554Z,2.80
2023-03-26T15:45:22.516Z,1.73
2023-03-26T15:48:11.018Z,1.95
2023-03-26T15:50:38.741Z,2.58
2023-03-26T15:53:06.651Z,2.72
2023-03-26T15:56:09.508Z,2.00
2023-03-26T15:58:36.857Z,1.95
2023-03-26T16:01:10.259Z,2.83
2023-03-26T16:03:43.160Z,3.70
2023-03-26T16:06:19.553Z,3.10
2023-03-26T16:08:46.896Z,3.22
2023-03-26T16:11:15.512Z,1.92
2023-03-26T16:13:44.840Z,2.22
2023-03-26T16:18:59.516Z,1.70
2023-03-26T16:21:32.201Z,2.10
2023-03-26T16:24:02.780Z,2.55
2023-03-26T16:26:32.986Z,1.73
2023-03-26T16:29:03.517Z,2.05
2023-03-26T16:31:38.833Z,1.67
2023-03-26T16:34:09.131Z,1.98
2023-03-26T16:36:43.004Z,1.90
2023-03-26T16:39:22.133Z,3.88
2023-03-26T16:41:52.198Z,1.60
2023-03-26T16:44:22.208Z,2.20
2023-03-26T16:46:55.583Z,1.80
2023-03-26T16:49:36.110Z,2.70
2023-03-26T16:52:23.302Z,2.05
2023-03-26T16:55:09.572Z,2.10
2023-03-26T16:58:08.920Z,1.80
2023-03-26T17:00:49.898Z,1.80
2023-03-26T17:03:31.806Z,1.80
2023-03-26T17:06:05.985Z,3.60
2023-03-26T17:08:42.042Z,1.50
2023-03-26T17:11:25.825Z,1.75
2023-03-26T17:14:11.925Z,1.73
2023-03-26T17:17:11.487Z,1.60
2023-03-26T17:19:46.090Z,1.70
2023-03-26T17:22:16.643Z,1.73
2023-03-26T17:25:04.812Z,1.27
2023-03-26T17:28:07.030Z,2.55
2023-03-26T17:30:43.522Z,1.77
2023-03-26T17:33:13.963Z,1.60
2023-03-26T17:35:43.340Z,1.90
2023-03-26T17:38:30.973Z,2.47
2023-03-26T17:40:59.618Z,1.83
2023-03-26T17:43:46.104Z,1.70
2023-03-26T17:46:13.731Z,1.58
2023-03-26T17:48:46.922Z,2.92
2023-03-26T17:51:20.429Z,1.90
2023-03-26T17:53:47.847Z,2.35
2023-03-26T17:56:21.157Z,1.80
2023-03-26T17:58:50.768Z,2.03
2023-03-26T18:01:21.162Z,1.60
2023-03-26T18:03:50.621Z,2.05
2023-03-26T18:06:24.747Z,2.85
2023-03-26T18:08:55.010Z,1.88
2023-03-26T18:11:45.370Z,1.80
2023-03-26T18:14:39.152Z,1.70
2023-03-26T18:17:07.192Z,2.13
2023-03-26T18:19:48.047Z,2.17
2023-03-26T18:22:18.906Z,2.80
2023-03-26T18:24:47.566Z,2.70
2023-03-26T18:27:16.535Z,2.03
2023-03-26T18:30:01.718Z,3.85
2023-03-26T18:32:33.840Z,2.55
2023-03-26T18:35:03.125Z,2.25
2023-03-26T18:37:38.750Z,3.00
2023-03-26T18:40:12.275Z,2.38
2023-03-26T18:42:41.198Z,1.95
2023-03-26T18:45:10.197Z,4.32
2023-03-26T18:47:38.460Z,2.30
2023-03-26T18:50:06.179Z,2.13
2023-03-26T18:52:33.563Z,1.58
2023-03-26T18:55:03.153Z,2.58
2023-03-26T18:57:31.424Z,1.33
2023-03-26T19:00:10.208Z,3.13
2023-03-26T19:02:39.153Z,1.90
2023-03-26T19:05:07.456Z,2.67
2023-03-26T19:07:35.948Z,2.58
2023-03-26T19:10:03.242Z,2.33
2023-03-26T19:12:32.913Z,1.60
2023-03-26T19:15:07.700Z,2.38
2023-03-26T19:17:39.651Z,1.98
2023-03-26T19:20:09.945Z,2.03
2023-03-26T19:22:37.570Z,1.85
2023-03-26T19:25:06.323Z,1.92
2023-03-26T19:27:33.626Z,1.80
2023-03-26T19:30:01.021Z,2.65
2023-03-26T19:32:32.398Z,1.63
2023-03-26T19:35:00.640Z,2.58
2023-03-26T19:37:32.617Z,1.90
2023-03-26T19:40:12.892Z,1.90
2023-03-26T19:42:42.899Z,2.88
2023-03-26T19:45:23.102Z,1.70
2023-03-26T19:48:00.527Z,1.98
2023-03-26T19:50:36.565Z,2.00
2023-03-26T19:53:16.573Z,2.63
2023-03-26T19:55:53.159Z,2.67
2023-03-26T19:58:20.454Z,2.83
2023-03-26T20:00:47.944Z,2.13
2023-03-26T20:03:16.716Z,3.83
2023-03-26T20:05:44.399Z,1.27
2023-03-26T20:08:15.887Z,1.52
2023-03-26T20:10:43.596Z,2.05
2023-03-26T20:13:15.966Z,1.80
2023-03-26T20:15:44.722Z,2.15
2023-03-26T20:18:12.454Z,1.70
2023-03-26T20:20:41.144Z,3.08
2023-03-26T20:23:14.338Z,2.20
2023-03-26T20:25:46.380Z,1.70
2023-03-26T20:28:14.195Z,1.90
2023-03-26T20:30:41.446Z,1.98
2023-03-26T20:33:16.447Z,1.75
2023-03-26T20:35:43.834Z,1.80
2023-03-26T20:38:12.334Z,1.40
2023-03-26T20:40:39.909Z,2.30
2023-03-26T20:43:12.098Z,1.70
2023-03-26T20:45:39.422Z,2.20
2023-03-26T20:48:08.428Z,1.88
2023-03-26T20:50:35.977Z,1.55
2023-03-26T20:53:06.425Z,1.45
2023-03-26T20:55:33.686Z,1.05
2023-03-26T20:58:01.095Z,1.00
2023-03-26T21:00:28.514Z,1.73
2023-03-26T21:02:56.993Z,1.10
2023-03-26T21:05:29.122Z,0.95
2023-03-26T21:08:01.862Z,0.98
2023-03-26T21:10:34.237Z,1.88
2023-03-26T21:13:10.782Z,1.08
2023-03-26T21:15:38.166Z,0.98
2023-03-26T21:18:05.584Z,1.23
2023-03-26T21:20:34.620Z,1.38
2023-03-26T21:23:04.993Z,1.30
2023-03-26T21:25:38.389Z,2.38
2023-03-26T21:28:12.612Z,1.20
2023-03-26T21:30:40.080Z,1.50
2023-03-26T21:33:07.406Z,1.98
2023-03-26T21:35:35.034Z,1.58
2023-03-26T21:38:04.487Z,1.55
2023-03-26T21:40:32.160Z,2.08
2023-03-26T21:42:59.548Z,1.67
2023-03-26T21:45:27.061Z,1.40
2023-03-26T21:47:54.467Z,1.83
2023-03-26T21:50:23.344Z,1.40
2023-03-26T21:52:51.162Z,1.33
2023-03-26T21:55:22.452Z,1.52
2023-03-26T21:57:56.198Z,1.88
2023-03-26T22:00:30.736Z,2.13
2023-03-26T22:03:12.357Z,2.10
2023-03-26T22:05:39.690Z,1.80
2023-03-26T22:08:08.070Z,3.10
2023-03-26T22:10:35.342Z,2.05
2023-03-26T22:13:02.634Z,2.03
2023-03-26T22:15:31.256Z,1.40
2023-03-26T22:18:02.529Z,2.15
2023-03-26T22:20:29.910Z,3.42
2023-03-26T22:22:58.582Z,3.35
2023-03-26T22:25:25.874Z,2.13
2023-03-26T22:27:53.920Z,1.98
2023-03-26T22:30:21.858Z,2.10
2023-03-26T22:32:50.110Z,2.20
2023-03-26T22:35:17.515Z,1.60
2023-03-26T22:37:45.121Z,2.13
2023-03-26T22:40:16.124Z,1.70
2023-03-26T22:42:43.384Z,2.22
2023-03-26T22:45:11.075Z,2.53
2023-03-26T22:47:38.379Z,2.30
2023-03-26T22:50:07.421Z,1.88
2023-03-26T22:52:35.966Z,2.35
2023-03-26T22:55:03.333Z,2.10
2023-03-26T22:57:30.659Z,2.25
2023-03-26T23:00:07.535Z,1.60
2023-03-26T23:02:34.837Z,2.08
2023-03-26T23:05:02.313Z,2.70
2023-03-26T23:07:31.400Z,2.13
2023-03-26T23:09:58.712Z,2.50
2023-03-26T23:12:26.008Z,3.35
2023-03-26T23:14:53.611Z,2.22
2023-03-26T23:17:21.268Z,1.80
2023-03-26T23:19:48.565Z,2.78
2023-03-26T23:22:16.081Z,2.30
2023-03-26T23:24:43.531Z,3.45
2023-03-26T23:27:10.784Z,2.15
2023-03-26T23:29:38.025Z,2.30
2023-03-26T23:32:23.435Z,1.70
2023-03-26T23:34:52.673Z,3.38
2023-03-26T23:37:23.206Z,1.90
2023-03-26T23:39:51.468Z,1.92
2023-03-26T23:42:28.563Z,2.45
2023-03-26T23:44:57.106Z,2.35
2023-03-26T23:47:24.623Z,1.65
2023-03-26T23:49:51.936Z,1.27
2023-03-26T23:52:19.161Z,1.50
2023-03-26T23:54:47.306Z,1.20
2023-03-26T23:57:14.662Z,1.45
2023-03-26T23:59:41.933Z,0.82
